Time;durP1;ratioP1;P1;durP2;ratioP2;P2;SDS_P1;SDS_P2;PMS_P1;PMS_P2;Temp;Humidity;BMP_temperature;BMP_pressure;BME280_temperature;BME280_humidity;BME280_pressure;Samples;Min_cycle;Max_cycle;Signal;HPM_P1;HPM_P2
2022/02/19 08:06:46;;;;;;;3.73;1.80;;;3.50;99.90;;;;;;5124635;27;20558;-78
2022/02/19 08:09:12;;;;;;;7.33;2.67;;;3.80;99.90;;;;;;5129650;28;20433;-78
2022/02/19 08:11:38;;;;;;;5.57;3.10;;;3.90;99.90;;;;;;5129121;28;20501;-78
2022/02/19 08:14:04;;;;;;;13.40;3.67;;;3.60;99.90;;;;;;5116325;28;20420;-78
2022/02/19 08:16:30;;;;;;;8.70;2.53;;;3.40;99.90;;;;;;5114809;28;20410;-79
2022/02/19 08:18:57;;;;;;;7.83;2.73;;;4.40;99.90;;;;;;5115587;28;20641;-78
2022/02/19 08:21:24;;;;;;;7.10;2.70;;;;;;;;;;5114682;28;20236;-79
2022/02/19 08:23:49;;;;;;;9.63;2.57;;;4.20;99.90;;;;;;5113993;28;20441;-79
2022/02/19 08:26:22;;;;;;;8.93;3.90;;;4.70;99.90;;;;;;5115751;28;20457;-79
2022/02/19 08:28:47;;;;;;;7.90;3.40;;;5.20;99.90;;;;;;5118363;28;20172;-79
2022/02/19 08:31:13;;;;;;;4.50;2.40;;;5.10;99.90;;;;;;5115595;28;20645;-79
2022/02/19 08:33:38;;;;;;;6.67;2.80;;;4.90;99.90;;;;;;5115818;28;20180;-78
2022/02/19 08:36:05;;;;;;;12.37;2.97;;;5.80;99.90;;;;;;5119232;28;20180;-80
2022/02/19 08:38:30;;;;;;;8.73;3.00;;;6.00;99.90;;;;;;5118917;28;20207;-81
2022/02/19 08:40:56;;;;;;;7.53;3.50;;;6.40;99.90;;;;;;5124394;28;20196;-79
2022/02/19 08:43:22;;;;;;;7.30;2.47;;;6.10;99.90;;;;;;5123130;28;20179;-80
2022/02/19 08:45:47;;;;;;;5.17;2.90;;;5.90;99.90;;;;;;5119604;28;20200;-79
2022/02/19 08:48:13;;;;;;;10.40;2.90;;;6.00;99.90;;;;;;5120180;28;20172;-81
2022/02/19 08:50:40;;;;;;;10.53;3.03;;;5.40;99.90;;;;;;5121526;28;20213;-80
2022/02/19 08:53:06;;;;;;;10.20;2.83;;;5.20;99.90;;;;;;5124115;28;20186;-80
2022/02/19 08:55:31;;;;;;;9.80;2.63;;;4.50;99.90;;;;;;5121882;28;20172;-80
2022/02/19 08:57:57;;;;;;;13.73;2.80;;;4.30;99.90;;;;;;5122941;28;20193;-80
2022/02/19 09:00:23;;;;;;;9.97;4.00;;;4.30;99.90;;;;;;5119286;28;20192;-80
2022/02/19 09:02:49;;;;;;;22.73;8.80;;;4.40;99.90;;;;;;5118237;28;20173;-79
2022/02/19 09:05:17;;;;;;;12.43;4.23;;;4.60;99.90;;;;;;5117306;28;20685;-80
2022/02/19 09:07:44;;;;;;;5.67;2.73;;;;;;;;;;5119479;28;20253;-79
2022/02/19 09:10:11;;;;;;;19.00;7.30;;;5.50;99.90;;;;;;5117404;28;20666;-80
2022/02/19 09:12:43;;;;;;;15.00;5.50;;;5.80;99.90;;;;;;5118713;28;20240;-79
2022/02/19 09:15:09;;;;;;;11.07;3.63;;;5.70;99.90;;;;;;5117114;28;20239;-80
2022/02/19 09:17:35;;;;;;;15.40;5.03;;;5.20;99.90;;;;;;5105189;28;20181;-80
2022/02/19 09:20:00;;;;;;;18.97;6.63;;;5.20;99.90;;;;;;5100927;28;20207;-80
2022/02/19 09:22:26;;;;;;;12.47;4.27;;;5.20;99.90;;;;;;5103449;28;20183;-80
2022/02/19 09:24:52;;;;;;;22.07;7.83;;;5.20;99.90;;;;;;5104132;28;20195;-79
2022/02/19 09:27:18;;;;;;;14.20;5.53;;;;;;;;;;5106006;28;20177;-80
2022/02/19 09:29:43;;;;;;;15.17;4.13;;;6.30;99.90;;;;;;5106001;28;20255;-80
2022/02/19 09:32:11;;;;;;;7.77;3.50;;;6.50;99.90;;;;;;5104689;28;20259;-80
2022/02/19 09:34:37;;;;;;;15.57;7.17;;;6.60;99.90;;;;;;5106727;28;20191;-79
2022/02/19 09:37:03;;;;;;;18.63;6.90;;;6.50;99.90;;;;;;5105170;28;20721;-80
2022/02/19 09:39:29;;;;;;;14.40;5.97;;;6.50;99.90;;;;;;5101634;28;20202;-80
2022/02/19 09:42:00;;;;;;;11.17;4.20;;;6.40;99.90;;;;;;5099819;28;20250;-81
2022/02/19 09:44:26;;;;;;;6.77;2.50;;;6.00;99.90;;;;;;5101850;28;20163;-79
2022/02/19 09:46:53;;;;;;;7.50;4.20;;;5.50;99.90;;;;;;5103787;28;20171;-80
2022/02/19 09:49:20;;;;;;;15.93;7.03;;;5.40;99.90;;;;;;5104130;28;20202;-80
2022/02/19 09:51:46;;;;;;;12.57;3.27;;;5.50;99.90;;;;;;5102813;28;20183;-79
2022/02/19 09:54:12;;;;;;;19.03;6.90;;;;;;;;;;5106015;28;20170;-80
2022/02/19 09:56:38;;;;;;;7.43;3.57;;;5.40;99.90;;;;;;5104619;28;20173;-80
2022/02/19 09:59:08;;;;;;;11.57;3.23;;;5.20;99.90;;;;;;5097900;28;20196;-79
2022/02/19 10:01:33;;;;;;;12.33;5.30;;;5.20;99.90;;;;;;5097607;28;20229;-80
2022/02/19 10:04:03;;;;;;;11.53;4.80;;;5.20;99.90;;;;;;5099301;28;20182;-78
2022/02/19 10:06:37;;;;;;;5.50;2.33;;;5.10;99.90;;;;;;5103490;28;20627;-79
2022/02/19 10:09:10;;;;;;;8.93;2.30;;;5.30;99.90;;;;;;5107475;28;20200;-79
2022/02/19 10:11:37;;;;;;;9.33;3.87;;;5.60;99.90;;;;;;5098053;28;20169;-78
2022/02/19 10:14:29;;;;;;;27.30;12.63;;;5.70;99.90;;;;;;5098364;28;20219;-79
2022/02/19 10:17:11;;;;;;;8.33;4.10;;;5.20;99.90;;;;;;5098943;28;20267;-79
2022/02/19 10:20:07;;;;;;;7.73;2.50;;;5.50;99.90;;;;;;5098497;28;20549;-78
2022/02/19 10:22:36;;;;;;;4.73;2.10;;;5.50;99.90;;;;;;5097331;28;20193;-78
2022/02/19 10:25:05;;;;;;;17.93;7.03;;;5.40;99.90;;;;;;5096475;28;20254;-78
2022/02/19 10:27:55;;;;;;;17.97;8.03;;;6.00;99.90;;;;;;5101475;28;20176;-79
2022/02/19 10:30:24;;;;;;;7.53;2.20;;;5.80;99.90;;;;;;5103840;28;20237;-79
2022/02/19 10:32:59;;;;;;;10.17;2.60;;;5.70;99.90;;;;;;5102842;28;20173;-79
2022/02/19 10:35:37;;;;;;;8.50;3.30;;;6.40;99.90;;;;;;5103647;28;20669;-78
2022/02/19 10:38:11;;;;;;;9.73;3.10;;;6.20;99.90;;;;;;5101035;28;20634;-78
2022/02/19 10:40:42;;;;;;;8.93;3.30;;;5.90;99.90;;;;;;5101566;28;20191;-79
2022/02/19 10:43:20;;;;;;;8.63;1.60;;;5.60;99.90;;;;;;5100120;28;20170;-79
2022/02/19 10:46:01;;;;;;;7.00;2.37;;;5.40;99.90;;;;;;5099856;28;20201;-78
2022/02/19 10:48:31;;;;;;;10.97;2.93;;;5.30;99.90;;;;;;5101473;28;20169;-78
2022/02/19 10:51:18;;;;;;;10.17;1.90;;;5.40;99.90;;;;;;5100357;28;20190;-77
2022/02/19 10:54:08;;;;;;;5.67;2.37;;;5.20;99.90;;;;;;5098774;28;20164;-78
2022/02/19 10:56:35;;;;;;;8.37;2.17;;;5.80;99.90;;;;;;5104604;28;20196;-79
2022/02/19 10:59:01;;;;;;;10.73;2.10;;;6.00;99.90;;;;;;5099751;28;20221;-79
2022/02/19 11:01:28;;;;;;;8.37;2.90;;;6.20;99.90;;;;;;5100861;28;20173;-78
2022/02/19 11:03:55;;;;;;;8.27;1.73;;;;;;;;;;5097359;28;20185;-78
2022/02/19 11:06:21;;;;;;;6.07;1.90;;;7.00;99.90;;;;;;5100466;28;20235;-79
2022/02/19 11:08:47;;;;;;;5.33;1.87;;;7.30;99.90;;;;;;5098266;28;20172;-79
2022/02/19 11:11:13;;;;;;;5.10;1.43;;;7.30;99.90;;;;;;5103180;28;20652;-79
2022/02/19 11:13:39;;;;;;;7.93;1.80;;;7.70;99.90;;;;;;5101608;28;20172;-79
2022/02/19 11:16:06;;;;;;;5.73;1.80;;;7.90;99.90;;;;;;5098374;28;20651;-79
2022/02/19 11:18:36;;;;;;;5.30;2.10;;;7.10;99.90;;;;;;5095740;28;20191;-80
2022/02/19 11:21:03;;;;;;;8.67;3.90;;;7.20;99.90;;;;;;5098533;28;20199;-80
2022/02/19 11:23:31;;;;;;;12.67;3.93;;;8.00;99.90;;;;;;5098535;28;20271;-80
2022/02/19 11:25:59;;;;;;;8.23;2.90;;;7.50;99.90;;;;;;5100438;28;20736;-79
2022/02/19 11:28:30;;;;;;;7.67;2.60;;;6.70;99.90;;;;;;5101336;28;20523;-80
2022/02/19 11:30:56;;;;;;;11.07;4.97;;;6.10;99.90;;;;;;5102480;28;20200;-79
2022/02/19 11:33:25;;;;;;;8.63;3.53;;;5.80;99.90;;;;;;5099507;28;20174;-79
2022/02/19 11:35:51;;;;;;;19.60;7.70;;;5.70;99.90;;;;;;5100520;28;20181;-79
2022/02/19 11:38:30;;;;;;;7.43;2.00;;;5.60;99.90;;;;;;5100297;28;20183;-78
2022/02/19 11:40:58;;;;;;;15.23;7.03;;;5.50;99.90;;;;;;5099650;28;20199;-79
2022/02/19 11:43:43;;;;;;;9.97;3.07;;;5.70;99.90;;;;;;5103725;28;20249;-79
2022/02/19 11:46:15;;;;;;;11.47;4.87;;;5.80;99.90;;;;;;5101684;28;20286;-79
2022/02/19 11:48:46;;;;;;;13.97;3.87;;;6.20;99.90;;;;;;5105218;28;20194;-79
2022/02/19 11:51:24;;;;;;;8.43;3.67;;;6.90;99.90;;;;;;5104902;28;20180;-78
2022/02/19 11:54:06;;;;;;;5.73;2.33;;;8.00;99.90;;;;;;5103871;28;20540;-79
2022/02/19 11:56:37;;;;;;;3.13;2.10;;;8.80;99.90;;;;;;5104119;28;20169;-79
2022/02/19 11:59:05;;;;;;;9.03;2.40;;;9.00;99.90;;;;;;5102394;28;20270;-78
2022/02/19 12:01:32;;;;;;;8.60;2.10;;;10.30;99.90;;;;;;5101990;28;20194;-79
2022/02/19 12:04:24;;;;;;;6.00;1.70;;;10.20;98.00;;;;;;5102808;28;20724;-80
2022/02/19 12:07:05;;;;;;;7.17;2.50;;;9.70;97.60;;;;;;5100787;28;20192;-79
2022/02/19 12:09:31;;;;;;;6.83;2.53;;;8.90;97.90;;;;;;5100346;28;20189;-80
2022/02/19 12:12:04;;;;;;;8.73;1.50;;;8.90;97.80;;;;;;5100025;28;20533;-80
2022/02/19 12:14:50;;;;;;;4.80;2.33;;;9.00;94.70;;;;;;5099912;28;20172;-79
2022/02/19 12:17:24;;;;;;;5.37;1.70;;;9.80;96.80;;;;;;5102225;28;20175;-80
2022/02/19 12:20:02;;;;;;;4.50;1.87;;;10.50;92.70;;;;;;5104193;28;20184;-79
2022/02/19 12:22:33;;;;;;;7.33;2.70;;;10.00;93.30;;;;;;5104244;28;20151;-80
2022/02/19 12:25:00;;;;;;;5.13;2.03;;;9.60;94.80;;;;;;5104012;28;20192;-80
2022/02/19 12:27:26;;;;;;;5.80;2.20;;;10.00;93.90;;;;;;5100112;28;20172;-80
2022/02/19 12:30:18;;;;;;;6.20;1.83;;;9.50;92.80;;;;;;5096564;28;20200;-80
2022/02/19 12:32:45;;;;;;;7.13;2.47;;;8.50;93.80;;;;;;5099417;28;20176;-79
2022/02/19 12:35:11;;;;;;;5.43;1.77;;;7.70;95.70;;;;;;5098755;28;20644;-79
2022/02/19 12:37:37;;;;;;;4.83;2.03;;;7.90;96.30;;;;;;5099388;28;20173;-79
2022/02/19 12:40:03;;;;;;;5.50;1.47;;;8.70;95.50;;;;;;5098879;28;20670;-79
2022/02/19 12:42:31;;;;;;;5.87;2.20;;;9.30;94.10;;;;;;5098555;28;20214;-80
2022/02/19 12:45:00;;;;;;;4.90;1.70;;;9.30;94.50;;;;;;5096668;28;20670;-79
2022/02/19 12:47:26;;;;;;;4.80;1.23;;;9.60;94.80;;;;;;5096937;28;20175;-79
2022/02/19 12:49:52;;;;;;;3.87;0.97;;;9.50;93.70;;;;;;5096163;28;20180;-80
2022/02/19 12:52:20;;;;;;;7.30;1.43;;;8.60;93.80;;;;;;5098170;28;20180;-79
2022/02/19 12:54:46;;;;;;;5.80;1.50;;;8.90;95.10;;;;;;5098557;28;20171;-80
2022/02/19 12:57:14;;;;;;;4.47;2.03;;;9.40;95.60;;;;;;5099235;28;20172;-79
2022/02/19 12:59:43;;;;;;;6.30;1.40;;;9.30;94.10;;;;;;5116135;28;20176;-79
2022/02/19 13:02:11;;;;;;;3.93;2.27;;;8.90;93.50;;;;;;5116693;28;20202;-79
2022/02/19 13:04:41;;;;;;;5.07;1.50;;;8.50;95.30;;;;;;5107425;28;20169;-78
2022/02/19 13:07:33;;;;;;;3.67;1.60;;;9.60;93.80;;;;;;5101948;28;20168;-80
2022/02/19 13:09:59;;;;;;;5.90;1.67;;;10.10;91.80;;;;;;5097487;28;20200;-80
2022/02/19 13:12:40;;;;;;;6.07;1.63;;;10.10;92.50;;;;;;5102369;28;20176;-80
2022/02/19 13:15:10;;;;;;;4.37;1.60;;;10.50;91.50;;;;;;5104581;28;20167;-81
2022/02/19 13:17:39;;;;;;;4.30;1.30;;;11.00;91.00;;;;;;5101572;28;20645;-78
2022/02/19 13:20:17;;;;;;;4.53;1.90;;;11.40;90.40;;;;;;5097710;28;20227;-78
2022/02/19 13:22:44;;;;;;;6.53;1.80;;;11.20;88.60;;;;;;5099651;28;20664;-79
2022/02/19 13:25:12;;;;;;;11.00;4.30;;;10.90;87.20;;;;;;5098505;28;20220;-78
2022/02/19 13:27:39;;;;;;;4.70;1.67;;;10.90;87.90;;;;;;5099303;28;20183;-79
2022/02/19 13:30:15;;;;;;;3.97;1.33;;;11.00;86.20;;;;;;5100367;28;20284;-78
2022/02/19 13:32:51;;;;;;;6.23;1.50;;;10.50;85.80;;;;;;5102941;28;20156;-78
2022/02/19 13:35:25;;;;;;;7.33;2.03;;;10.40;86.30;;;;;;5097483;28;20214;-78
2022/02/19 13:37:52;;;;;;;3.67;1.73;;;10.60;85.80;;;;;;5099841;28;20660;-79
2022/02/19 13:40:20;;;;;;;3.90;1.60;;;10.70;84.90;;;;;;5101090;28;20196;-78
2022/02/19 13:42:51;;;;;;;6.23;1.40;;;11.10;83.90;;;;;;5099719;28;20172;-79
2022/02/19 13:45:36;;;;;;;6.33;1.57;;;10.60;84.10;;;;;;5099420;28;20192;-78
2022/02/19 13:48:06;;;;;;;5.37;1.37;;;10.70;85.00;;;;;;5099348;28;20629;-78
2022/02/19 13:50:42;;;;;;;5.30;1.40;;;10.40;85.70;;;;;;5095326;28;20556;-77
2022/02/19 13:53:10;;;;;;;5.17;1.40;;;10.80;83.20;;;;;;5097520;28;20520;-79
2022/02/19 13:55:38;;;;;;;4.30;1.23;;;11.40;82.00;;;;;;5096936;28;20188;-79
2022/02/19 13:58:18;;;;;;;1.87;0.90;;;10.90;83.50;;;;;;5099235;28;20194;-78
2022/02/19 14:00:45;;;;;;;4.03;1.40;;;10.50;82.90;;;;;;5100629;28;20219;-78
2022/02/19 14:03:12;;;;;;;4.90;1.40;;;11.20;82.20;;;;;;5100119;28;20530;-78
2022/02/19 14:05:46;;;;;;;4.20;1.40;;;11.20;79.10;;;;;;5101492;28;20609;-79
2022/02/19 14:08:17;;;;;;;6.17;1.40;;;10.70;77.50;;;;;;5109051;28;20174;-79
2022/02/19 14:11:02;;;;;;;6.63;1.23;;;10.60;78.70;;;;;;5109525;28;20196;-78
2022/02/19 14:13:30;;;;;;;3.33;1.50;;;10.70;78.00;;;;;;5107906;28;20168;-79
2022/02/19 14:15:57;;;;;;;4.70;1.23;;;10.90;77.40;;;;;;5097952;28;20172;-78
2022/02/19 14:18:23;;;;;;;4.80;2.00;;;10.80;78.40;;;;;;5098770;28;20527;-78
2022/02/19 14:20:50;;;;;;;2.47;1.27;;;9.50;79.70;;;;;;5100896;28;20692;-79
2022/02/19 14:23:23;;;;;;;3.23;1.20;;;8.40;84.40;;;;;;5097966;28;20521;-79
2022/02/19 14:25:56;;;;;;;3.30;1.23;;;7.70;86.10;;;;;;5098110;28;20192;-78
2022/02/19 14:28:25;;;;;;;4.00;1.60;;;7.40;88.30;;;;;;5097722;28;20161;-80
2022/02/19 14:30:53;;;;;;;4.57;1.43;;;7.30;88.90;;;;;;5097028;28;20184;-78
2022/02/19 14:33:20;;;;;;;4.33;1.50;;;7.00;89.80;;;;;;5096217;28;20172;-79
2022/02/19 14:35:47;;;;;;;7.80;1.47;;;7.00;90.80;;;;;;5097140;28;20176;-78
2022/02/19 14:38:32;;;;;;;6.63;2.23;;;7.00;91.20;;;;;;5100545;28;20618;-79
2022/02/19 14:41:03;;;;;;;6.57;2.60;;;7.00;91.50;;;;;;5099815;28;20196;-79
2022/02/19 14:43:30;;;;;;;9.37;3.23;;;6.80;90.40;;;;;;5102980;28;20173;-78
2022/02/19 14:45:56;;;;;;;6.30;1.67;;;6.80;90.80;;;;;;5104660;28;20661;-78
2022/02/19 14:48:23;;;;;;;18.50;6.07;;;6.70;91.20;;;;;;5099879;28;20287;-79
2022/02/19 14:50:50;;;;;;;20.37;6.03;;;6.60;91.10;;;;;;5096866;28;20276;-79
2022/02/19 14:53:20;;;;;;;26.10;9.07;;;6.80;90.70;;;;;;5097179;28;20295;-79
2022/02/19 14:55:51;;;;;;;6.67;2.43;;;6.80;91.70;;;;;;5096621;28;20193;-79
2022/02/19 14:58:18;;;;;;;7.13;2.67;;;6.70;91.50;;;;;;5097805;28;20174;-78
2022/02/19 15:00:45;;;;;;;6.10;1.53;;;6.60;91.10;;;;;;5078489;28;20702;-79
2022/02/19 15:03:11;;;;;;;4.80;2.10;;;6.80;95.10;;;;;;5100557;28;20181;-79
2022/02/19 15:05:37;;;;;;;4.93;1.70;;;;;;;;;;5096345;28;20214;-80
2022/02/19 15:08:05;;;;;;;4.37;1.83;;;;;;;;;;5096931;28;20643;-81
2022/02/19 15:10:31;;;;;;;7.20;2.20;;;6.30;95.70;;;;;;5095718;28;20189;-81
2022/02/19 15:12:57;;;;;;;4.73;2.13;;;;;;;;;;5095671;28;20173;-79
2022/02/19 15:15:23;;;;;;;5.70;2.23;;;6.00;96.80;;;;;;5099073;28;20272;-79
2022/02/19 15:17:49;;;;;;;3.43;2.00;;;6.60;94.30;;;;;;5102326;28;20190;-79
2022/02/19 15:20:16;;;;;;;4.00;1.67;;;6.10;96.80;;;;;;5098749;28;20201;-81
2022/02/19 15:22:43;;;;;;;4.87;1.80;;;6.40;92.80;;;;;;5097957;28;20182;-79
2022/02/19 15:25:13;;;;;;;3.37;1.47;;;5.80;92.90;;;;;;5096792;28;20202;-78
2022/02/19 15:27:39;;;;;;;6.67;2.10;;;5.80;92.90;;;;;;5099410;28;20567;-79
2022/02/19 15:30:06;;;;;;;5.80;2.10;;;5.80;94.30;;;;;;5099823;28;20200;-79
2022/02/19 15:32:31;;;;;;;4.17;1.80;;;5.80;95.70;;;;;;5101246;28;20184;-78
2022/02/19 15:34:57;;;;;;;5.57;2.73;;;5.80;96.20;;;;;;5098236;28;20212;-79
2022/02/19 15:37:23;;;;;;;6.97;2.00;;;5.80;96.50;;;;;;5095702;28;20548;-79
2022/02/19 15:39:49;;;;;;;6.37;1.77;;;5.70;96.50;;;;;;5096500;28;20230;-80
2022/02/19 15:42:15;;;;;;;3.43;1.93;;;5.70;96.70;;;;;;5099823;28;20594;-79
2022/02/19 15:44:41;;;;;;;4.27;1.93;;;5.70;96.80;;;;;;5097230;28;20178;-79
2022/02/19 15:47:09;;;;;;;6.03;1.83;;;5.70;97.00;;;;;;5099847;28;20534;-79
2022/02/19 15:49:35;;;;;;;3.63;1.67;;;5.60;97.40;;;;;;5096628;28;20192;-79
2022/02/19 15:52:01;;;;;;;4.47;1.80;;;5.50;97.10;;;;;;5097080;28;20252;-79
2022/02/19 15:54:27;;;;;;;5.83;1.93;;;5.50;97.40;;;;;;5096569;28;20168;-79
2022/02/19 15:56:52;;;;;;;4.50;2.17;;;5.40;97.40;;;;;;5097906;28;20169;-79
2022/02/19 15:59:19;;;;;;;6.10;2.27;;;5.40;97.40;;;;;;5097192;28;20646;-79
2022/02/19 16:01:45;;;;;;;9.63;4.50;;;5.40;97.90;;;;;;5094419;28;20181;-79
2022/02/19 16:04:10;;;;;;;5.27;2.67;;;5.20;98.40;;;;;;5093743;28;20328;-79
2022/02/19 16:06:36;;;;;;;11.90;4.43;;;5.20;99.10;;;;;;5094980;28;20216;-79
2022/02/19 16:09:04;;;;;;;7.17;2.53;;;5.20;99.30;;;;;;5093624;28;20176;-79
2022/02/19 16:11:29;;;;;;;5.70;2.77;;;5.10;99.60;;;;;;5096433;28;20168;-79
2022/02/19 16:13:55;;;;;;;7.80;3.97;;;5.10;99.90;;;;;;5097866;28;20179;-79
2022/02/19 16:16:21;;;;;;;6.93;2.87;;;4.80;99.90;;;;;;5099579;28;20181;-79
2022/02/19 16:18:47;;;;;;;9.07;3.43;;;4.80;99.90;;;;;;5100391;28;20187;-79
2022/02/19 16:21:13;;;;;;;10.20;4.10;;;4.80;99.90;;;;;;5098161;28;20177;-79
2022/02/19 16:23:39;;;;;;;13.20;4.30;;;4.80;99.90;;;;;;5095155;28;20192;-80
2022/02/19 16:26:04;;;;;;;7.20;2.50;;;4.80;99.90;;;;;;5095970;28;20222;-79
2022/02/19 16:28:31;;;;;;;6.90;4.27;;;4.80;99.90;;;;;;5100391;28;20539;-79
2022/02/19 16:30:57;;;;;;;10.20;4.93;;;4.70;99.90;;;;;;5098483;28;20197;-79
2022/02/19 16:33:24;;;;;;;9.77;4.07;;;4.70;99.90;;;;;;5101582;28;20176;-78
2022/02/19 16:35:50;;;;;;;9.90;6.00;;;4.50;99.90;;;;;;5102816;28;20184;-79
2022/02/19 16:38:16;;;;;;;5.77;3.90;;;4.60;99.90;;;;;;5104421;28;20794;-79
2022/02/19 16:40:42;;;;;;;9.03;3.87;;;4.50;99.90;;;;;;5103910;28;20203;-79
2022/02/19 16:43:08;;;;;;;8.87;4.23;;;4.40;99.90;;;;;;5102242;28;20207;-79
2022/02/19 16:45:42;;;;;;;9.17;3.53;;;4.40;99.90;;;;;;5102932;28;20204;-79
2022/02/19 16:48:08;;;;;;;11.73;4.73;;;4.40;99.90;;;;;;5100206;28;20161;-79
2022/02/19 16:50:35;;;;;;;6.80;3.67;;;4.40;99.90;;;;;;5099258;28;20920;-79
2022/02/19 16:53:01;;;;;;;8.93;3.70;;;4.30;99.90;;;;;;5097744;28;20414;-79
2022/02/19 16:55:27;;;;;;;8.20;3.77;;;4.20;99.90;;;;;;5097823;28;20502;-79
2022/02/19 16:57:53;;;;;;;5.10;3.03;;;4.30;99.90;;;;;;5099697;28;20177;-80
2022/02/19 17:00:19;;;;;;;6.77;2.80;;;4.10;99.90;;;;;;5098944;28;20426;-79
2022/02/19 17:02:45;;;;;;;6.50;3.70;;;4.20;99.90;;;;;;5100024;28;20459;-79
2022/02/19 17:05:11;;;;;;;9.10;6.07;;;4.10;99.90;;;;;;5105309;28;20209;-78
2022/02/19 17:07:37;;;;;;;10.00;3.47;;;4.10;99.90;;;;;;5101969;28;20696;-79
2022/02/19 17:10:04;;;;;;;7.73;3.27;;;4.00;99.90;;;;;;5101011;28;20462;-79
2022/02/19 17:12:30;;;;;;;11.07;4.37;;;4.00;99.90;;;;;;5098651;28;20168;-79
2022/02/19 17:14:56;;;;;;;10.10;5.37;;;4.00;99.90;;;;;;5099707;28;20525;-79
2022/02/19 17:17:23;;;;;;;18.10;6.57;;;3.90;99.90;;;;;;5099560;28;20438;-79
2022/02/19 17:19:49;;;;;;;10.53;5.47;;;3.70;99.90;;;;;;5099949;28;20203;-78
2022/02/19 17:22:15;;;;;;;12.57;4.70;;;3.80;99.90;;;;;;5099964;28;20255;-78
2022/02/19 17:24:41;;;;;;;10.97;5.03;;;3.80;99.90;;;;;;5099428;28;20438;-79
2022/02/19 17:27:07;;;;;;;9.17;5.17;;;3.70;99.90;;;;;;5098550;28;20263;-79
2022/02/19 17:29:32;;;;;;;11.70;5.83;;;3.70;99.90;;;;;;5099441;28;20218;-79
2022/02/19 17:31:59;;;;;;;10.53;4.37;;;3.60;99.90;;;;;;5099225;28;20176;-79
2022/02/19 17:34:24;;;;;;;7.57;4.20;;;3.70;99.90;;;;;;5099531;28;20192;-79
2022/02/19 17:36:53;;;;;;;11.97;5.87;;;3.50;99.90;;;;;;5097959;28;20187;-79
2022/02/19 17:39:19;;;;;;;9.40;4.77;;;3.40;99.90;;;;;;5099079;28;20203;-79
2022/02/19 17:41:45;;;;;;;6.67;4.27;;;3.30;99.90;;;;;;5097981;28;20414;-79
2022/02/19 17:44:12;;;;;;;10.47;4.23;;;3.20;99.90;;;;;;5097026;28;20562;-79
2022/02/19 17:46:39;;;;;;;12.73;4.03;;;3.20;99.90;;;;;;5099919;28;20684;-78
2022/02/19 17:49:06;;;;;;;12.00;3.67;;;3.00;99.90;;;;;;5099732;28;20437;-79
2022/02/19 17:51:31;;;;;;;8.30;3.83;;;3.10;99.90;;;;;;5098674;28;20744;-79
2022/02/19 17:53:57;;;;;;;11.63;4.37;;;3.10;99.90;;;;;;5100847;28;20452;-79
2022/02/19 17:56:23;;;;;;;11.87;4.67;;;3.10;99.90;;;;;;5101870;28;20266;-78
2022/02/19 17:58:49;;;;;;;10.73;5.20;;;3.10;99.90;;;;;;5102540;28;20180;-79
2022/02/19 18:01:14;;;;;;;12.37;6.83;;;3.10;99.90;;;;;;5102435;28;20562;-79
2022/02/19 18:03:42;;;;;;;9.40;5.93;;;3.00;99.90;;;;;;5102201;28;20184;-79
2022/02/19 18:06:09;;;;;;;7.30;5.00;;;2.90;99.90;;;;;;5101649;28;20212;-78
2022/02/19 18:08:35;;;;;;;12.87;6.37;;;3.00;99.90;;;;;;5102336;28;20442;-78
2022/02/19 18:11:01;;;;;;;9.83;4.60;;;3.10;99.90;;;;;;5100085;28;20476;-78
2022/02/19 18:13:26;;;;;;;10.53;4.83;;;3.00;99.90;;;;;;5096330;28;20176;-78
2022/02/19 18:15:52;;;;;;;8.40;4.57;;;3.10;99.90;;;;;;5096700;28;20172;-78
2022/02/19 18:18:18;;;;;;;8.30;4.57;;;3.00;99.90;;;;;;5096768;28;20180;-78
2022/02/19 18:20:44;;;;;;;9.50;3.70;;;3.00;99.90;;;;;;5096253;28;20200;-79
2022/02/19 18:23:09;;;;;;;23.27;9.57;;;2.90;99.90;;;;;;5097607;28;20182;-78
2022/02/19 18:25:35;;;;;;;23.40;9.83;;;2.80;99.90;;;;;;5097737;28;20609;-77
2022/02/19 18:28:02;;;;;;;20.13;8.33;;;2.80;99.90;;;;;;5094198;28;20193;-77
2022/02/19 18:30:28;;;;;;;18.20;9.07;;;2.70;99.90;;;;;;5095635;28;20663;-78
2022/02/19 18:32:55;;;;;;;17.90;8.80;;;2.70;99.90;;;;;;5095980;28;20501;-77
2022/02/19 18:35:20;;;;;;;23.57;10.43;;;2.70;99.90;;;;;;5094303;28;20630;-77
2022/02/19 18:37:46;;;;;;;16.73;9.13;;;2.70;99.90;;;;;;5096043;28;20480;-77
2022/02/19 18:40:12;;;;;;;13.63;6.03;;;2.60;99.90;;;;;;5094162;28;20562;-77
2022/02/19 18:42:38;;;;;;;11.07;5.70;;;2.60;99.90;;;;;;5097051;28;20172;-77
2022/02/19 18:45:05;;;;;;;11.50;6.00;;;2.70;99.90;;;;;;5095373;28;20511;-77
2022/02/19 18:47:32;;;;;;;10.50;5.37;;;2.70;99.90;;;;;;5094235;28;20187;-77
2022/02/19 18:49:58;;;;;;;12.93;4.80;;;2.60;99.90;;;;;;5093648;28;20584;-77
2022/02/19 18:52:23;;;;;;;8.60;4.87;;;2.70;99.90;;;;;;5095473;28;20535;-77
2022/02/19 18:54:49;;;;;;;10.73;4.37;;;2.70;99.90;;;;;;5095411;28;20743;-77
2022/02/19 18:57:15;;;;;;;11.37;4.50;;;2.60;99.90;;;;;;5097531;28;20182;-78
2022/02/19 18:59:40;;;;;;;12.60;4.90;;;2.50;99.90;;;;;;5098435;28;20308;-78
2022/02/19 19:02:09;;;;;;;13.83;4.57;;;2.50;99.90;;;;;;5098477;28;20622;-78
2022/02/19 19:04:35;;;;;;;10.13;4.93;;;2.40;99.90;;;;;;5098212;28;20179;-78
2022/02/19 19:07:05;;;;;;;10.67;4.03;;;2.50;99.90;;;;;;5098111;28;20999;-78
2022/02/19 19:09:34;;;;;;;10.73;4.77;;;2.40;99.90;;;;;;5108713;28;20462;-78
2022/02/19 19:12:00;;;;;;;10.67;4.53;;;2.30;99.90;;;;;;5097071;28;20417;-78
2022/02/19 19:14:25;;;;;;;8.93;4.33;;;2.20;99.90;;;;;;5099917;28;20414;-78
2022/02/19 19:16:51;;;;;;;9.10;4.10;;;2.10;99.90;;;;;;5099234;28;20210;-79
2022/02/19 19:19:17;;;;;;;8.33;4.10;;;2.10;99.90;;;;;;5098454;28;20268;-79
2022/02/19 19:21:43;;;;;;;8.57;4.50;;;2.00;99.90;;;;;;5098389;28;20184;-78
2022/02/19 19:24:08;;;;;;;7.67;3.63;;;1.90;99.90;;;;;;5099535;28;20216;-79
2022/02/19 19:26:36;;;;;;;10.50;4.97;;;2.00;99.90;;;;;;5101379;28;20216;-78
2022/02/19 19:29:03;;;;;;;11.03;5.10;;;1.80;99.90;;;;;;5083074;28;20234;-78
2022/02/19 19:31:29;;;;;;;6.47;3.97;;;1.80;99.90;;;;;;5099431;28;20406;-79
2022/02/19 19:33:56;;;;;;;14.57;4.23;;;1.80;99.90;;;;;;5099489;28;20487;-79
2022/02/19 19:36:22;;;;;;;7.10;4.13;;;1.70;99.90;;;;;;5099555;28;20184;-79
2022/02/19 19:38:48;;;;;;;9.10;4.87;;;1.70;99.90;;;;;;5103435;28;20417;-80
2022/02/19 19:41:17;;;;;;;13.80;4.90;;;1.60;99.90;;;;;;5114990;28;20410;-78
2022/02/19 19:43:46;;;;;;;8.57;4.77;;;1.60;99.90;;;;;;5116860;28;20215;-78
2022/02/19 19:46:13;;;;;;;10.10;4.27;;;1.60;99.90;;;;;;5105103;28;20457;-78
2022/02/19 19:48:38;;;;;;;9.37;5.23;;;1.60;99.90;;;;;;5099672;28;20441;-79
2022/02/19 19:51:04;;;;;;;9.90;5.00;;;1.60;99.90;;;;;;5099401;28;20438;-78
2022/02/19 19:53:29;;;;;;;13.13;4.87;;;1.60;99.90;;;;;;5099656;28;20676;-78
2022/02/19 19:55:55;;;;;;;10.87;4.00;;;1.60;99.90;;;;;;5099469;28;20238;-79
2022/02/19 19:58:22;;;;;;;9.17;4.37;;;1.60;99.90;;;;;;5100562;28;20591;-79
2022/02/19 20:00:47;;;;;;;6.33;3.80;;;1.90;99.90;;;;;;5099571;28;20188;-78
2022/02/19 20:03:13;;;;;;;11.93;4.60;;;1.50;99.90;;;;;;5098129;28;20426;-79
2022/02/19 20:05:39;;;;;;;7.70;3.90;;;1.50;99.90;;;;;;5099169;28;20219;-78
2022/02/19 20:08:05;;;;;;;11.33;4.07;;;2.10;99.90;;;;;;5099728;28;20606;-79
2022/02/19 20:10:31;;;;;;;9.90;4.17;;;1.50;99.90;;;;;;5101250;28;20203;-79
2022/02/19 20:12:57;;;;;;;8.17;4.63;;;1.40;99.90;;;;;;5099748;28;20406;-79
2022/02/19 20:15:23;;;;;;;11.17;4.37;;;1.40;99.90;;;;;;5098964;28;20172;-79
2022/02/19 20:17:49;;;;;;;10.77;5.17;;;1.50;99.90;;;;;;5099568;28;20445;-79
2022/02/19 20:20:16;;;;;;;13.07;4.60;;;1.40;99.90;;;;;;5098153;28;20558;-80
2022/02/19 20:22:42;;;;;;;12.57;4.97;;;1.40;99.90;;;;;;5099629;28;20441;-78
2022/02/19 20:25:08;;;;;;;9.13;3.53;;;1.40;99.90;;;;;;5098862;28;20950;-79
2022/02/19 20:27:36;;;;;;;8.30;4.77;;;1.40;99.90;;;;;;5098384;28;20176;-79
2022/02/19 20:30:02;;;;;;;11.70;4.93;;;1.40;99.90;;;;;;5098603;28;20441;-79
2022/02/19 20:32:28;;;;;;;10.00;4.27;;;1.40;99.90;;;;;;5098963;28;20410;-79
2022/02/19 20:34:54;;;;;;;14.53;5.97;;;1.30;99.90;;;;;;5099362;28;20515;-79
2022/02/19 20:37:19;;;;;;;11.30;5.47;;;1.40;99.90;;;;;;5097686;28;20245;-79
2022/02/19 20:39:45;;;;;;;11.00;4.90;;;1.40;99.90;;;;;;5098658;28;20192;-79
2022/02/19 20:42:10;;;;;;;10.77;5.03;;;1.70;99.90;;;;;;5098692;28;20173;-79
2022/02/19 20:44:39;;;;;;;13.33;6.27;;;2.00;99.90;;;;;;5099757;28;20180;-79
2022/02/19 20:47:05;;;;;;;10.87;5.30;;;1.70;99.90;;;;;;5098790;28;20214;-79
2022/02/19 20:49:31;;;;;;;15.80;5.90;;;1.70;99.90;;;;;;5098646;28;20430;-79
2022/02/19 20:51:57;;;;;;;11.33;4.33;;;1.70;99.90;;;;;;5098041;28;20210;-79
2022/02/19 20:54:22;;;;;;;11.10;4.13;;;1.70;99.90;;;;;;5097187;28;20199;-79
2022/02/19 20:56:48;;;;;;;7.83;3.10;;;1.80;99.90;;;;;;5099816;28;20425;-79
2022/02/19 20:59:14;;;;;;;12.77;3.53;;;1.70;99.90;;;;;;5097092;28;20200;-79
2022/02/19 21:01:39;;;;;;;6.80;3.70;;;1.60;99.90;;;;;;5096878;28;20176;-78
2022/02/19 21:04:06;;;;;;;7.63;4.00;;;1.40;99.90;;;;;;5095977;28;20267;-78
2022/02/19 21:06:34;;;;;;;18.07;5.97;;;1.30;99.90;;;;;;5098108;28;20243;-79